Time;durP1;ratioP1;P1;durP2;ratioP2;P2;SDS_P1;SDS_P2;PMS_P1;PMS_P2;Temp;Humidity;BMP_temperature;BMP_pressure;BME280_temperature;BME280_humidity;BME280_pressure;Samples;Min_cycle;Max_cycle;Signal;HPM_P1;HPM_P2
2021/06/25 00:01:48;;;;;;;20.75;6.80;;;;;;;22.41;69.36;99543.82;129847;1092;22504;-74
2021/06/25 00:04:17;;;;;;;26.05;8.28;;;;;;;22.38;69.51;99549.22;129812;1093;22723;-74
2021/06/25 00:06:45;;;;;;;16.88;7.45;;;;;;;22.33;69.28;99539.15;129663;1093;114436;-74
2021/06/25 00:09:14;;;;;;;30.80;7.43;;;;;;;22.30;69.56;99545.36;129827;1093;22542;-74
2021/06/25 00:11:43;;;;;;;24.65;8.38;;;;;;;22.27;69.77;99545.21;129740;1092;114204;-74
2021/06/25 00:14:12;;;;;;;25.55;6.83;;;;;;;22.21;69.95;99536.28;129810;1093;22772;-74
2021/06/25 00:16:41;;;;;;;23.93;6.95;;;;;;;22.16;70.22;99545.60;127031;1093;22889;-74
2021/06/25 00:19:09;;;;;;;23.13;6.80;;;;;;;22.11;70.46;99544.97;125215;1092;114006;-74
2021/06/25 00:21:38;;;;;;;23.18;8.58;;;;;;;22.06;70.64;99540.44;129760;1093;23938;-74
2021/06/25 00:24:07;;;;;;;24.75;8.55;;;;;;;22.03;70.84;99535.55;129731;1093;114191;-75
2021/06/25 00:26:36;;;;;;;24.58;7.78;;;;;;;21.99;70.84;99542.91;129723;1093;22552;-75
2021/06/25 00:29:05;;;;;;;28.48;7.80;;;;;;;21.97;70.96;99545.16;129844;1093;22606;-74
2021/06/25 00:31:33;;;;;;;23.68;8.63;;;;;;;21.94;71.17;99536.68;129709;1093;113818;-75
2021/06/25 00:34:02;;;;;;;19.55;7.05;;;;;;;21.92;71.27;99531.49;129829;1093;22595;-74
2021/06/25 00:36:31;;;;;;;19.53;6.50;;;;;;;21.92;71.29;99537.05;129684;1093;114429;-75
2021/06/25 00:38:59;;;;;;;23.60;8.93;;;;;;;21.92;71.29;99527.91;129871;1093;22517;-75
2021/06/25 00:41:28;;;;;;;31.10;10.05;;;;;;;21.93;71.76;99530.31;129720;1092;114501;-75
2021/06/25 00:43:57;;;;;;;26.43;9.60;;;;;;;21.96;71.61;99518.56;129796;1093;22560;-75
2021/06/25 00:46:25;;;;;;;30.03;10.58;;;;;;;21.99;71.36;99522.63;129796;1093;22541;-74
2021/06/25 00:48:54;;;;;;;31.60;11.33;;;;;;;22.01;71.38;99512.05;129763;1092;114126;-75
2021/06/25 00:51:22;;;;;;;37.55;13.38;;;;;;;22.02;71.60;99516.45;129767;1093;22619;-74
2021/06/25 00:53:50;;;;;;;41.13;13.40;;;;;;;22.02;71.59;99508.13;129676;1093;114725;-74
2021/06/25 00:56:19;;;;;;;34.38;13.20;;;;;;;22.00;71.64;99504.88;129813;1093;22651;-75
2021/06/25 00:58:52;;;;;;;43.75;13.78;;;;;;;21.99;71.46;99515.16;129833;1093;22567;-73
2021/06/25 01:01:21;;;;;;;45.55;14.23;;;;;;;21.97;71.45;99513.83;129689;1092;114252;-75
2021/06/25 01:03:49;;;;;;;38.25;14.30;;;;;;;21.95;71.39;99519.70;129838;1093;22595;-73
2021/06/25 01:06:18;;;;;;;28.23;11.45;;;;;;;21.94;71.55;99511.71;129672;1091;114565;-75
2021/06/25 01:08:47;;;;;;;33.83;12.65;;;;;;;21.90;71.76;99514.36;129855;1093;22567;-73
2021/06/25 01:11:15;;;;;;;41.63;13.68;;;;;;;21.86;71.99;99503.11;129694;1093;114309;-75
2021/06/25 01:13:51;;;;;;;42.33;13.60;;;;;;;21.84;72.13;99504.59;129836;1092;22581;-73
2021/06/25 01:16:19;;;;;;;73.23;18.03;;;;;;;21.81;71.94;99508.02;129803;1093;22572;-73
2021/06/25 01:18:48;;;;;;;55.90;16.75;;;;;;;21.80;72.27;99507.20;129749;1092;114146;-73
2021/06/25 01:21:16;;;;;;;50.88;16.93;;;;;;;21.78;72.21;99512.30;129844;1093;22570;-73
2021/06/25 01:23:45;;;;;;;51.78;16.45;;;;;;;21.75;72.24;99498.27;129648;1092;114649;-73
2021/06/25 01:26:13;;;;;;;52.83;18.20;;;;;;;21.72;72.26;99496.97;129810;1093;23424;-73
2021/06/25 01:28:42;;;;;;;54.98;16.33;;;;;;;21.71;72.36;99497.30;129832;1093;22568;-73
2021/06/25 01:31:11;;;;;;;42.73;14.23;;;;;;;21.70;72.33;99495.67;129685;1093;114329;-73
2021/06/25 01:33:39;;;;;;;41.08;13.68;;;;;;;21.69;72.27;99502.36;130492;1087;22622;-75
2021/06/25 01:36:08;;;;;;;33.08;13.68;;;;;;;21.68;72.33;99496.00;130395;1088;114077;-73
2021/06/25 01:38:37;;;;;;;38.05;10.93;;;;;;;21.71;71.89;99497.30;130476;1087;22586;-73
2021/06/25 01:41:05;;;;;;;38.65;14.35;;;;;;;21.73;72.01;99500.56;130526;1087;22566;-69
2021/06/25 01:43:33;;;;;;;51.03;21.05;;;;;;;21.74;71.76;99507.73;130400;1090;114175;-69
2021/06/25 01:46:02;;;;;;;47.23;15.73;;;;;;;21.73;71.86;99508.88;130538;1087;22553;-68
2021/06/25 01:48:30;;;;;;;48.93;18.50;;;;;;;21.72;72.14;99496.16;130346;1087;115139;-68
2021/06/25 01:51:00;;;;;;;47.98;19.10;;;;;;;21.74;71.86;99504.97;130554;1087;23479;-69
2021/06/25 01:53:29;;;;;;;84.05;37.55;;;;;;;21.75;72.21;99495.50;130364;1086;114652;-68
2021/06/25 01:56:00;;;;;;;54.83;25.13;;;;;;;21.79;72.50;99497.25;130507;1087;22617;-73
2021/06/25 01:58:31;;;;;;;53.65;23.73;;;;;;;21.83;72.55;99486.31;130482;1085;22572;-73
2021/06/25 02:01:12;;;;;;;51.78;21.45;;;;;;;21.85;72.11;99497.89;130431;1087;114775;-73
2021/06/25 02:03:43;;;;;;;33.58;15.68;;;;;;;21.86;71.81;99494.79;130486;1087;22575;-73
2021/06/25 02:06:12;;;;;;;42.35;14.90;;;;;;;21.86;71.67;99491.20;130106;1087;115231;-73
2021/06/25 02:08:41;;;;;;;34.65;13.15;;;;;;;21.84;71.68;99488.76;130472;1087;24907;-73
2021/06/25 02:11:10;;;;;;;25.38;13.48;;;;;;;21.80;71.65;99490.56;130517;1087;22548;-73
2021/06/25 02:14:22;;;;;;;30.53;11.00;;;;;;;21.77;71.86;99498.76;125598;1093;24447;-74
2021/06/25 02:16:51;;;;;;;28.03;9.88;;;;;;;21.73;71.99;99501.38;130099;1093;23593;-74
2021/06/25 02:19:20;;;;;;;25.43;10.20;;;;;;;21.71;72.15;99502.84;129775;1093;113916;-74
2021/06/25 02:21:48;;;;;;;24.00;9.18;;;;;;;21.69;72.18;99507.91;129850;1091;22533;-74
2021/06/25 02:24:16;;;;;;;18.60;9.10;;;;;;;21.66;72.42;99506.61;129678;1093;113727;-74
2021/06/25 02:26:45;;;;;;;20.20;8.53;;;;;;;21.65;72.58;99506.94;129799;1093;22607;-75
2021/06/25 02:29:13;;;;;;;18.65;8.43;;;;;;;21.63;72.72;99517.58;129815;1092;22521;-74
2021/06/25 02:31:42;;;;;;;29.93;11.00;;;;;;;21.62;72.71;99511.21;129685;1094;113472;-74
2021/06/25 02:34:11;;;;;;;35.65;13.15;;;;;;;21.63;73.13;99517.58;129848;1093;22565;-74
2021/06/25 02:36:39;;;;;;;35.33;13.73;;;;;;;21.66;73.30;99526.02;129701;1095;113826;-74
2021/06/25 02:39:08;;;;;;;44.48;15.73;;;;;;;21.71;73.26;99527.81;129830;1093;22582;-74
2021/06/25 02:41:37;;;;;;;37.25;12.93;;;;;;;21.74;73.37;99527.97;129664;1092;118962;-74
2021/06/25 02:44:06;;;;;;;31.08;11.63;;;;;;;21.78;73.30;99528.13;129847;1093;22552;-74
2021/06/25 02:46:36;;;;;;;22.98;9.05;;;;;;;21.82;73.36;99529.06;129778;1093;22581;-74
2021/06/25 02:49:05;;;;;;;19.75;8.03;;;;;;;21.86;73.08;99524.48;129697;1093;113770;-74
2021/06/25 02:51:33;;;;;;;22.28;7.93;;;;;;;21.88;73.40;99519.42;129765;1093;22556;-74
2021/06/25 02:54:02;;;;;;;27.40;8.05;;;;;;;21.89;73.22;99532.16;129697;1093;114057;-74
2021/06/25 02:56:30;;;;;;;31.05;8.35;;;;;;;21.90;73.42;99527.42;129804;1093;22546;-74
2021/06/25 02:58:58;;;;;;;25.53;8.03;;;;;;;21.92;73.40;99528.72;129833;1093;22600;-75
2021/06/25 03:01:27;;;;;;;18.80;8.30;;;;;;;21.95;73.28;99527.22;129704;1092;113858;-74
2021/06/25 03:03:55;;;;;;;24.88;8.00;;;;;;;21.96;73.53;99524.11;129843;1093;23216;-74
2021/06/25 03:06:24;;;;;;;17.83;7.30;;;;;;;21.96;73.69;99518.56;127346;1091;113894;-73
2021/06/25 03:08:53;;;;;;;24.70;8.23;;;;;;;21.97;74.02;99525.73;125230;1092;22848;-74
2021/06/25 03:11:21;;;;;;;16.75;6.03;;;;;;;22.01;74.16;99525.92;129567;1093;113991;-73
2021/06/25 03:13:53;;;;;;;23.55;8.10;;;;;;;22.05;74.39;99527.70;129786;1093;22666;-74
2021/06/25 03:16:21;;;;;;;21.90;7.45;;;;;;;22.09;74.85;99527.83;129777;1093;22655;-74
2021/06/25 03:18:49;;;;;;;20.85;7.13;;;;;;;22.16;74.84;99525.36;129708;1093;114279;-75
2021/06/25 03:21:18;;;;;;;24.28;7.90;;;;;;;22.21;74.51;99527.95;129787;1093;23380;-74
2021/06/25 03:23:46;;;;;;;21.58;8.48;;;;;;;22.29;74.79;99520.71;129712;1093;114224;-74
2021/06/25 03:26:15;;;;;;;24.48;8.68;;;;;;;22.37;74.69;99522.61;129883;1093;23052;-75
2021/06/25 03:28:43;;;;;;;24.08;8.95;;;;;;;22.46;74.55;99512.28;129771;1093;22566;-74
2021/06/25 03:31:12;;;;;;;24.15;7.95;;;;;;;22.54;74.03;99511.39;129696;1093;113617;-74
2021/06/25 03:33:41;;;;;;;23.63;8.70;;;;;;;22.64;73.61;99510.20;129790;1093;23078;-74
2021/06/25 03:36:09;;;;;;;22.28;7.78;;;;;;;22.74;73.31;99520.90;129710;1093;113770;-75
2021/06/25 03:38:39;;;;;;;32.80;8.48;;;;;;;22.84;73.28;99510.21;129789;1093;22588;-74
2021/06/25 03:41:08;;;;;;;26.28;7.83;;;;;;;22.95;73.41;99510.60;129812;1092;22642;-74
2021/06/25 03:43:37;;;;;;;18.50;7.18;;;;;;;23.06;73.44;99506.27;129680;1092;114587;-74
2021/06/25 03:46:05;;;;;;;21.80;7.88;;;;;;;23.15;72.60;99497.84;129798;1093;22558;-75
2021/06/25 03:48:33;;;;;;;23.10;8.13;;;;;;;23.25;72.17;99500.19;129686;1092;113806;-74
2021/06/25 03:51:02;;;;;;;32.48;7.85;;;;;;;23.35;71.41;99494.20;129818;1092;23119;-74
2021/06/25 03:53:30;;;;;;;37.40;7.98;;;;;;;23.45;70.55;99490.98;129660;1092;113859;-74
2021/06/25 03:56:11;;;;;;;30.38;7.23;;;;;;;23.56;69.46;99492.19;129849;1092;22551;-75
2021/06/25 03:58:43;;;;;;;27.25;7.23;;;;;;;23.69;69.15;99490.23;129800;1093;22587;-74
2021/06/25 04:01:16;;;;;;;21.70;7.60;;;;;;;23.78;68.99;99482.61;129713;1093;114328;-75
2021/06/25 04:03:45;;;;;;;48.43;19.05;;;;;;;23.88;68.56;99490.49;129799;1093;22576;-75
2021/06/25 04:06:14;;;;;;;35.48;13.83;;;;;;;23.99;68.62;99482.48;129753;1093;113720;-70
2021/06/25 04:08:50;;;;;;;29.70;10.37;;;;;;;24.12;67.41;99478.53;129810;1092;23104;-71
2021/06/25 04:11:18;;;;;;;36.10;11.98;;;;;;;24.25;66.36;99471.00;129811;1092;22598;-70
2021/06/25 04:13:47;;;;;;;28.93;9.25;;;;;;;24.42;64.92;99478.29;129701;1093;113810;-71
2021/06/25 04:16:17;;;;;;;19.73;7.90;;;;;;;24.55;64.15;99471.53;129833;1092;23059;-71
2021/06/25 04:18:47;;;;;;;18.15;7.25;;;;;;;24.67;65.17;99475.09;129662;1093;113906;-70
2021/06/25 04:21:15;;;;;;;28.03;8.20;;;;;;;24.79;65.38;99479.02;129830;1093;22563;-70
2021/06/25 04:23:44;;;;;;;30.53;9.13;;;;;;;24.91;65.22;99478.97;129680;1092;113881;-70
2021/06/25 04:26:12;;;;;;;25.35;8.75;;;;;;;25.03;64.53;99464.20;129835;1092;22493;-71
2021/06/25 04:28:41;;;;;;;26.65;7.10;;;;;;;25.14;64.28;99463.32;129811;1093;22575;-70
2021/06/25 04:31:10;;;;;;;34.38;6.58;;;;;;;25.25;64.14;99458.02;129708;1093;113900;-70
2021/06/25 04:33:39;;;;;;;32.53;6.85;;;;;;;25.35;63.36;99457.52;129842;1093;22593;-70
2021/06/25 04:36:08;;;;;;;31.50;6.43;;;;;;;25.43;61.99;99456.53;129661;1092;114152;-75
2021/06/25 04:38:37;;;;;;;21.93;5.85;;;;;;;25.51;61.79;99446.38;129792;1092;22589;-75
2021/06/25 04:41:05;;;;;;;32.43;9.28;;;;;;;25.59;60.31;99460.14;129799;1093;23258;-75
2021/06/25 04:43:35;;;;;;;27.55;8.40;;;;;;;25.69;59.09;99453.23;129685;1093;114811;-75
2021/06/25 04:46:03;;;;;;;25.43;8.33;;;;;;;25.77;58.72;99451.45;129799;1093;22568;-75
2021/06/25 04:48:34;;;;;;;25.93;6.30;;;;;;;25.83;58.82;99455.56;129685;1093;113758;-75
2021/06/25 04:51:03;;;;;;;25.23;8.08;;;;;;;25.90;58.57;99458.55;129797;1093;22582;-75
2021/06/25 04:53:32;;;;;;;27.75;10.50;;;;;;;25.96;58.59;99457.92;129704;1092;113740;-75
2021/06/25 04:56:00;;;;;;;44.38;21.95;;;;;;;26.03;58.10;99455.28;129767;1093;22579;-75
2021/06/25 04:58:29;;;;;;;49.28;19.15;;;;;;;26.10;57.47;99457.45;129837;1094;22553;-75
2021/06/25 05:00:58;;;;;;;40.25;18.98;;;;;;;26.18;56.76;99459.23;129671;1093;114001;-75
2021/06/25 05:03:27;;;;;;;33.30;9.45;;;;;;;26.25;56.43;99459.41;129810;1092;22591;-75
2021/06/25 05:05:56;;;;;;;33.65;7.08;;;;;;;26.32;55.75;99453.19;129690;1093;113965;-75
2021/06/25 05:08:24;;;;;;;18.23;5.30;;;;;;;26.39;55.14;99454.17;129828;1093;23638;-75
2021/06/25 05:10:52;;;;;;;18.68;4.93;;;;;;;26.48;54.49;99456.74;129778;1093;22582;-75
2021/06/25 05:13:21;;;;;;;21.30;5.73;;;;;;;26.62;54.29;99461.83;129704;1093;114019;-75
2021/06/25 05:15:49;;;;;;;22.30;5.15;;;;;;;26.77;53.54;99458.16;129782;1093;22595;-75
2021/06/25 05:18:19;;;;;;;24.28;4.45;;;;;;;27.01;52.27;99457.88;129698;1092;113869;-76
2021/06/25 05:21:07;;;;;;;30.80;5.38;;;;;;;27.32;52.58;99464.47;129777;1093;23108;-75
2021/06/25 05:23:36;;;;;;;24.58;4.85;;;;;;;27.61;50.91;99465.82;129727;1093;113860;-75
2021/06/25 05:26:04;;;;;;;16.25;5.23;;;;;;;27.92;50.13;99465.56;129783;1093;22578;-75
2021/06/25 05:28:32;;;;;;;21.15;5.75;;;;;;;28.25;49.81;99478.11;129835;1093;22600;-75
2021/06/25 05:31:04;;;;;;;30.33;6.05;;;;;;;28.54;49.26;99479.33;129757;1093;113770;-73
2021/06/25 05:33:33;;;;;;;24.30;5.13;;;;;;;28.78;48.09;99481.66;129763;1093;23475;-74
2021/06/25 05:36:02;;;;;;;26.55;5.80;;;;;;;29.01;48.10;99479.56;129708;1094;114358;-73
2021/06/25 05:38:30;;;;;;;34.78;6.18;;;;;;;29.24;48.22;99473.02;129800;1093;22638;-74
2021/06/25 05:40:59;;;;;;;21.75;4.48;;;;;;;29.46;46.69;99472.88;126165;1092;22842;-75
2021/06/25 05:43:27;;;;;;;19.38;4.85;;;;;;;29.66;46.73;99476.29;125150;1093;113854;-74
2021/06/25 05:45:56;;;;;;;29.15;5.15;;;;;;;29.84;46.41;99476.45;129711;1092;23638;-75
2021/06/25 05:48:24;;;;;;;62.70;9.18;;;;;;;29.95;46.47;99470.92;129695;1092;114287;-75
2021/06/25 05:50:53;;;;;;;22.68;5.33;;;;;;;30.06;45.90;99474.64;129775;1093;22639;-75
2021/06/25 05:53:21;;;;;;;27.98;6.05;;;;;;;30.15;45.23;99477.94;129816;1093;23073;-75
2021/06/25 05:55:50;;;;;;;33.78;5.85;;;;;;;30.21;45.23;99484.79;129695;1092;113548;-75
2021/06/25 05:58:18;;;;;;;25.70;4.50;;;;;;;30.22;45.21;99484.41;129796;1093;23030;-76
2021/06/25 06:00:46;;;;;;;16.33;4.10;;;;;;;30.19;44.60;99487.99;129718;1093;114139;-75
2021/06/25 06:03:14;;;;;;;23.55;4.98;;;;;;;30.17;44.67;99481.95;129806;1092;22557;-75
2021/06/25 06:05:43;;;;;;;19.78;4.88;;;;;;;30.18;43.90;99480.75;129704;1093;113890;-75
2021/06/25 06:08:11;;;;;;;19.65;4.85;;;;;;;30.24;43.05;99484.83;129809;1092;23259;-75
2021/06/25 06:10:40;;;;;;;16.83;4.35;;;;;;;30.29;43.96;99489.28;129792;1093;22602;-75
2021/06/25 06:13:08;;;;;;;23.28;4.43;;;;;;;30.32;43.77;99488.48;129688;1093;113849;-75
2021/06/25 06:15:37;;;;;;;19.75;5.28;;;;;;;30.37;44.36;99490.93;129853;1092;22562;-76
2021/06/25 06:18:06;;;;;;;14.30;4.75;;;;;;;30.41;43.35;99497.39;129698;1093;114871;-75
2021/06/25 06:20:34;;;;;;;19.68;3.50;;;;;;;30.44;42.40;99502.20;129793;1093;22618;-75
2021/06/25 06:31:25;;;;;;;15.03;3.78;;;;;;;30.76;40.85;99498.81;129713;1092;113974;-74
2021/06/25 06:36:33;;;;;;;14.03;3.73;;;;;;;30.80;41.24;99508.89;129712;1093;113948;-74
2021/06/25 06:39:03;;;;;;;20.13;4.73;;;;;;;30.79;42.12;99510.09;129803;1092;22667;-74
2021/06/25 06:41:32;;;;;;;22.18;4.55;;;;;;;30.79;41.00;99512.91;129697;1093;114014;-74
2021/06/25 06:44:01;;;;;;;19.18;4.45;;;;;;;30.82;41.74;99519.75;129770;1092;23570;-73
2021/06/25 06:46:30;;;;;;;35.73;8.35;;;;;;;30.86;40.42;99515.77;129801;1094;23470;-74
2021/06/25 06:48:59;;;;;;;19.60;4.48;;;;;;;30.89;40.63;99522.59;129674;1093;113958;-74
2021/06/25 06:51:27;;;;;;;31.75;4.35;;;;;;;30.95;41.80;99521.02;129771;1093;23064;-74
2021/06/25 06:53:57;;;;;;;28.55;4.15;;;;;;;31.00;41.55;99517.03;129727;1093;114454;-73
2021/06/25 06:56:26;;;;;;;17.83;4.00;;;;;;;31.04;41.30;99515.83;129774;1092;22585;-74
2021/06/25 06:58:54;;;;;;;12.80;3.15;;;;;;;31.08;40.60;99521.48;129793;1095;22580;-73
2021/06/25 07:01:23;;;;;;;58.80;7.93;;;;;;;31.08;40.89;99522.28;129688;1092;113932;-73
2021/06/25 07:04:08;;;;;;;17.25;4.33;;;;;;;31.10;40.13;99519.91;129835;1092;22630;-74
2021/06/25 07:06:37;;;;;;;34.13;4.83;;;;;;;31.13;40.92;99521.14;129673;1093;113756;-73
2021/06/25 07:09:05;;;;;;;20.75;4.98;;;;;;;31.14;40.58;99519.94;129832;1093;22583;-73
2021/06/25 07:11:34;;;;;;;17.25;3.75;;;;;;;31.14;40.03;99506.67;129669;1093;114028;-73
2021/06/25 07:14:02;;;;;;;25.20;5.08;;;;;;;31.18;40.61;99515.91;129835;1092;22587;-74
2021/06/25 07:16:30;;;;;;;23.68;5.25;;;;;;;31.21;40.63;99511.50;129811;1093;22590;-73
2021/06/25 07:18:59;;;;;;;16.95;4.08;;;;;;;31.23;40.50;99515.54;129718;1093;113948;-74
2021/06/25 07:21:27;;;;;;;16.10;4.65;;;;;;;31.26;39.98;99511.94;129772;1093;22608;-74
2021/06/25 07:23:56;;;;;;;22.25;4.63;;;;;;;31.28;40.30;99512.34;129722;1093;114170;-74
2021/06/25 07:26:24;;;;;;;18.48;4.20;;;;;;;31.33;40.76;99513.14;129794;1093;22571;-73
2021/06/25 07:28:53;;;;;;;13.50;3.70;;;;;;;31.32;40.59;99515.16;129832;1092;23258;-73
2021/06/25 07:31:21;;;;;;;17.98;3.68;;;;;;;31.31;39.53;99510.72;130345;1089;113811;-74
2021/06/25 07:33:50;;;;;;;16.20;3.60;;;;;;;31.33;39.25;99507.52;130520;1090;22531;-73
2021/06/25 07:36:18;;;;;;;15.20;4.28;;;;;;;31.35;38.07;99514.36;130393;1089;113991;-73
2021/06/25 07:38:47;;;;;;;11.88;3.48;;;;;;;31.38;38.82;99507.13;130408;1089;22733;-73
2021/06/25 07:41:15;;;;;;;12.30;2.90;;;;;;;31.37;36.49;99517.59;130483;1090;22516;-74
2021/06/25 07:44:03;;;;;;;10.73;3.48;;;;;;;31.38;35.89;99513.57;130418;1089;113699;-74
2021/06/25 07:46:31;;;;;;;13.90;3.33;;;;;;;31.37;35.95;99503.51;130421;1088;22568;-74
2021/06/25 07:49:00;;;;;;;14.65;3.10;;;;;;;31.39;35.49;99500.30;130415;1090;114768;-74
2021/06/25 07:51:28;;;;;;;12.98;3.05;;;;;;;31.40;33.84;99493.47;130542;1089;22582;-74
2021/06/25 07:53:56;;;;;;;12.05;3.88;;;;;;;31.46;33.73;99492.66;130368;1090;114146;-74
2021/06/25 07:56:24;;;;;;;18.03;3.43;;;;;;;31.50;34.22;99496.30;130488;1089;22603;-74
2021/06/25 07:58:55;;;;;;;18.40;3.70;;;;;;;31.51;34.62;99497.10;130494;1088;22546;-74
2021/06/25 08:01:25;;;;;;;10.50;2.85;;;;;;;31.51;32.03;99485.84;130381;1090;113969;-74
2021/06/25 08:03:54;;;;;;;27.33;7.75;;;;;;;31.52;33.62;99491.08;130500;1090;22547;-74
2021/06/25 08:06:22;;;;;;;31.88;6.23;;;;;;;31.55;34.04;99489.47;130419;1090;114096;-74
2021/06/25 08:08:50;;;;;;;15.18;3.78;;;;;;;31.56;32.71;99496.72;130489;1090;22591;-74
2021/06/25 08:11:19;;;;;;;14.05;3.90;;;;;;;31.56;32.44;99499.54;130483;1090;23364;-73
2021/06/25 08:13:47;;;;;;;14.20;3.30;;;;;;;31.58;34.51;99514.03;130281;1089;113871;-74
2021/06/25 08:16:17;;;;;;;14.80;3.18;;;;;;;31.58;33.09;99509.20;130368;1090;22767;-74
2021/06/25 08:18:47;;;;;;;9.43;3.28;;;;;;;31.62;33.30;99512.81;130280;1090;113960;-74
2021/06/25 08:21:15;;;;;;;12.95;3.28;;;;;;;31.66;33.35;99514.87;130432;1089;23396;-74
2021/06/25 08:23:44;;;;;;;12.45;3.05;;;;;;;31.66;33.72;99515.67;130325;1087;114105;-73
2021/06/25 08:26:13;;;;;;;14.23;2.90;;;;;;;31.68;34.15;99518.91;130497;1089;22547;-73
2021/06/25 08:28:41;;;;;;;11.18;2.58;;;;;;;31.68;34.82;99521.72;130480;1090;22563;-73
2021/06/25 08:31:09;;;;;;;11.00;3.40;;;;;;;31.69;33.71;99526.15;130426;1089;114200;-73
2021/06/25 08:33:38;;;;;;;10.75;2.90;;;;;;;31.72;34.04;99516.09;130479;1090;22525;-73
2021/06/25 08:36:06;;;;;;;5.97;3.07;;;;;;;31.75;33.01;99513.27;130413;1090;114399;-74
2021/06/25 08:38:36;;;;;;;15.08;3.58;;;;;;;31.79;32.71;99516.90;130493;1090;22546;-73
2021/06/25 08:41:04;;;;;;;12.80;3.18;;;;;;;31.82;33.20;99513.28;130511;1089;22530;-73
2021/06/25 08:43:33;;;;;;;10.63;3.40;;;;;;;31.84;32.73;99521.34;130156;1090;114198;-73
2021/06/25 08:46:01;;;;;;;14.18;3.63;;;;;;;31.86;32.21;99513.30;130429;1090;22538;-74
2021/06/25 08:48:30;;;;;;;21.28;3.80;;;;;;;31.86;32.37;99514.09;130405;1089;113786;-74
2021/06/25 08:50:58;;;;;;;15.33;3.18;;;;;;;31.87;32.35;99510.08;130133;1090;23119;-74
2021/06/25 08:53:27;;;;;;;15.85;2.48;;;;;;;31.89;32.14;99512.47;130464;1089;23505;-74
2021/06/25 08:55:56;;;;;;;17.40;2.95;;;;;;;31.90;29.82;99500.80;130390;1090;115363;-74
2021/06/25 08:58:24;;;;;;;16.48;2.90;;;;;;;31.95;30.18;99493.96;130479;1090;22572;-74
2021/06/25 09:00:53;;;;;;;16.33;2.75;;;;;;;31.97;30.00;99503.63;130345;1090;113941;-74
2021/06/25 09:03:29;;;;;;;13.73;3.28;;;;;;;31.99;30.71;99491.95;130487;1090;23221;-74
2021/06/25 09:06:08;;;;;;;9.98;2.50;;;;;;;32.03;29.02;99492.73;130405;1089;114351;-73
2021/06/25 09:08:38;;;;;;;9.55;3.05;;;;;;;32.10;28.20;99491.95;130517;1090;22572;-74
2021/06/25 09:11:23;;;;;;;12.15;2.75;;;;;;;32.14;27.88;99498.39;130456;1090;22584;-73
2021/06/25 09:13:58;;;;;;;12.98;3.15;;;;;;;32.16;29.49;99490.34;130405;1089;114236;-74
2021/06/25 09:16:28;;;;;;;7.28;2.28;;;;;;;32.17;29.63;99495.58;130472;1090;23369;-73
2021/06/25 09:19:13;;;;;;;11.30;2.60;;;;;;;32.17;29.86;99489.14;130381;1089;113800;-74
2021/06/25 09:22:02;;;;;;;13.53;2.55;;;;;;;32.18;29.21;99487.90;130416;1090;22585;-74
2021/06/25 09:24:30;;;;;;;17.18;3.30;;;;;;;32.20;28.73;99491.16;130433;1089;114310;-74
2021/06/25 09:27:03;;;;;;;14.43;3.70;;;;;;;32.24;28.86;99487.13;130462;1089;22560;-74
2021/06/25 09:29:41;;;;;;;11.85;3.08;;;;;;;32.29;29.03;99489.55;130502;1089;23345;-74
2021/06/25 09:32:11;;;;;;;13.20;3.00;;;;;;;32.34;29.99;99491.14;130307;1090;113692;-74
2021/06/25 09:34:44;;;;;;;13.30;2.75;;;;;;;32.38;29.57;99493.95;130501;1090;22514;-73
2021/06/25 09:37:14;;;;;;;27.83;3.70;;;;;;;32.41;29.84;99487.52;130370;1088;114101;-73
2021/06/25 09:40:03;;;;;;;17.03;3.50;;;;;;;32.44;29.68;99490.33;130529;1090;22615;-73
2021/06/25 09:42:37;;;;;;;14.93;2.90;;;;;;;32.44;30.50;99487.52;130334;1089;113980;-73
2021/06/25 09:45:09;;;;;;;13.10;2.38;;;;;;;32.45;30.58;99483.48;130196;1090;22516;-73
2021/06/25 09:47:54;;;;;;;8.98;2.38;;;;;;;32.46;30.64;99487.91;130439;1089;23340;-74
2021/06/25 09:50:28;;;;;;;11.48;3.48;;;;;;;32.48;30.06;99482.64;130418;1089;113699;-74
2021/06/25 09:52:58;;;;;;;10.45;3.03;;;;;;;32.51;29.73;99481.03;130439;1090;22560;-74
2021/06/25 09:55:48;;;;;;;8.60;2.90;;;;;;;32.54;29.98;99480.23;130407;1089;114097;-73
2021/06/25 09:58:26;;;;;;;7.00;2.20;;;;;;;32.54;29.05;99474.59;130438;1090;22635;-73
2021/06/25 10:01:26;;;;;;;11.13;2.85;;;;;;;32.56;28.62;99466.52;130392;1090;115822;-73
2021/06/25 10:03:59;;;;;;;9.70;2.20;;;;;;;32.56;30.27;99469.34;130192;1089;22624;-73
2021/06/25 10:06:32;;;;;;;13.38;2.50;;;;;;;32.57;29.97;99468.94;130431;1089;114381;-73
2021/06/25 10:09:01;;;;;;;13.50;3.25;;;;;;;32.59;30.31;99469.34;130426;1089;22597;-74
2021/06/25 10:11:30;;;;;;;8.95;2.75;;;;;;;32.62;29.42;99462.05;130511;1090;22555;-73
2021/06/25 10:14:00;;;;;;;15.18;2.88;;;;;;;32.66;29.39;99469.30;130359;1090;114789;-73
2021/06/25 10:16:29;;;;;;;11.08;3.20;;;;;;;32.68;28.65;99466.88;130460;1090;22573;-73
2021/06/25 10:18:58;;;;;;;11.75;2.48;;;;;;;32.65;29.12;99459.23;130405;1089;114285;-73
2021/06/25 10:21:31;;;;;;;15.53;3.25;;;;;;;32.61;29.59;99458.42;130195;1090;22638;-73
2021/06/25 10:24:01;;;;;;;12.35;3.08;;;;;;;32.55;29.48;99456.45;130372;1090;114189;-72
2021/06/25 10:26:30;;;;;;;13.53;2.85;;;;;;;32.48;29.45;99448.80;130516;1090;22549;-73
2021/06/25 10:29:00;;;;;;;10.20;2.73;;;;;;;32.45;29.91;99455.28;130498;1089;22571;-73
2021/06/25 10:31:28;;;;;;;15.03;3.30;;;;;;;32.44;29.28;99456.48;130371;1090;113964;-73
2021/06/25 10:33:57;;;;;;;6.80;2.53;;;;;;;32.45;27.93;99449.63;130450;1089;22557;-72
2021/06/25 10:36:31;;;;;;;10.28;2.63;;;;;;;32.45;28.11;99460.92;130425;1089;114248;-72
2021/06/25 10:39:10;;;;;;;5.40;2.28;;;;;;;32.47;29.08;99463.30;130484;1088;22547;-72
2021/06/25 10:41:51;;;;;;;6.10;2.15;;;;;;;32.48;28.38;99462.09;130537;1088;22579;-73
2021/06/25 10:44:54;;;;;;;10.48;2.73;;;;;;;32.50;28.32;99459.67;130328;1090;113899;-73
2021/06/25 10:47:28;;;;;;;6.00;2.00;;;;;;;32.51;27.76;99455.64;130329;1090;22587;-72
2021/06/25 10:50:06;;;;;;;5.25;1.80;;;;;;;32.52;27.26;99460.08;130366;1090;113902;-73
2021/06/25 10:52:35;;;;;;;11.68;2.38;;;;;;;32.52;27.79;99451.61;130507;1090;22695;-73
2021/06/25 10:55:06;;;;;;;5.85;2.13;;;;;;;32.51;27.25;99453.63;130365;1090;114022;-72
2021/06/25 10:57:36;;;;;;;4.95;2.43;;;;;;;32.53;26.25;99456.05;130544;1089;23716;-73
2021/06/25 11:00:05;;;;;;;11.15;2.55;;;;;;;32.54;28.65;99452.83;130351;1090;113798;-72
2021/06/25 11:02:40;;;;;;;5.60;2.40;;;;;;;32.54;27.90;99452.02;130497;1090;23615;-72
2021/06/25 11:05:21;;;;;;;10.55;2.30;;;;;;;32.53;27.58;99447.58;130482;1088;22602;-60
2021/06/25 11:08:15;;;;;;;8.25;2.38;;;;;;;32.52;27.29;99445.97;130414;1089;114226;-72
2021/06/25 11:10:54;;;;;;;15.15;2.70;;;;;;;32.53;28.07;99441.94;130531;1090;22529;-72
2021/06/25 11:13:24;;;;;;;27.78;4.18;;;;;;;32.55;29.09;99434.69;130297;1090;114042;-72
2021/06/25 11:15:59;;;;;;;8.88;2.65;;;;;;;32.56;29.40;99427.83;130467;1088;22655;-72
2021/06/25 11:18:32;;;;;;;7.10;2.28;;;;;;;32.57;30.99;99432.27;130416;1088;114552;-72
2021/06/25 11:21:04;;;;;;;5.53;2.20;;;;;;;32.57;30.03;99432.27;130491;1090;22560;-72
2021/06/25 11:23:39;;;;;;;7.73;2.53;;;;;;;32.56;29.71;99422.19;130547;1089;22556;-72
2021/06/25 11:26:15;;;;;;;;;;;;;;;32.56;30.58;99430.66;130378;1089;114123;-73
2021/06/25 11:28:47;;;;;;;10.55;3.28;;;;;;;32.55;30.38;99423.41;130476;1089;21233;-73
2021/06/25 11:31:17;;;;;;;10.30;3.23;;;;;;;32.55;31.33;99429.05;130367;1090;114119;-73
2021/06/25 11:33:47;;;;;;;9.35;3.08;;;;;;;32.55;30.88;99439.52;130510;1089;22591;-73
2021/06/25 11:36:20;;;;;;;12.28;3.83;;;;;;;32.51;30.99;99436.70;130404;1088;115035;-70
2021/06/25 11:39:10;;;;;;;11.08;3.20;;;;;;;32.50;31.25;99439.93;130525;1090;22549;-69
2021/06/25 11:41:40;;;;;;;12.23;2.80;;;;;;;32.48;31.19;99433.89;130519;1089;23102;-68